Radiosonde details



Informationen :

Serial : Y1952034
Type : Vaisala RS41-SG
Date of production : 08.05.2026
Frequency : 405.500MHz
Launchsite : -
Nearest town : East Markham, GB (6.4km)

Altitude (Max) : 28445m at 2026-08-31 00:47:44
Speed (Max) : 30km/h at altitude 20705m

Average speed : 12km/h
Average ascent rate : 6m/s
Average descent rate : -34m/s
Ascent rate (Max) : 7.0m/s
Descent rate (Max): -53.4m/s

First frame :
DJ2DS-13 at 2026-08-31 00:29:20 at altitude 22254m (OG: 22189m)
Last frame :
DJ2DS-15 at 2026-08-31 00:52:33 at altitude 20303m (OG: 20230m)

Flighttime : 23m13s
Ascent time : 18m24s
Descent time : 4m49s
Uptime : 2h01m15s
Killtimer : 8h28m

Distance (Straight line distance): 2km

Distance (Route):


Frames : 97


Measurement :

Temperature : -50.7°C
Humidity : 0.6%
Pressure : -1.0hPa


Vertical profile (SkewT) :


Elevation profile :



Receiving stations :


Receiver Frames First received Last received
DJ2DS-15 73 2026-08-31 00:29:20 2026-08-31 00:52:33
DB0UT-7 16 2026-08-31 00:40:35 2026-08-31 00:48:38
BIOWL1-15 8 2026-08-31 00:38:54 2026-08-31 00:40:25

Share per receiver :



All frames :


Receiver Date Latitude Longitude Direction Speed Altitude Climb Temperature Humidity Pressure Voltage Killtimer Uptime BKT XDATA
DJ2DS-152026-08-31 00:52:3353.29575-0.8319859°13km/h20303m-20.5m/s-50.7°C0.6%-1.0hPa2.5V00:00:0000:00:0000:00:00
DJ2DS-152026-08-31 00:51:5653.29494-0.8335255°29km/h20705m-21.8m/s-51.0°C0.6%-1.0hPa2.5V00:00:0000:00:0000:00:00
DJ2DS-152026-08-31 00:51:3053.29476-0.83517352°16km/h21282m-22.9m/s-51.3°C3.3%0hPa2.5V00:00:0002:01:1500:00:00
DJ2DS-152026-08-31 00:51:0553.29386-0.8353618km/h21859m-24.2m/s-51.3°C3.3%0hPa2.6V00:00:0002:00:5000:00:00
DJ2DS-152026-08-31 00:50:4553.29334-0.83584148°13km/h22359m-24.6m/s-51.4°C0.5%-1.0hPa2.6V00:00:0000:00:0000:00:00
DJ2DS-152026-08-31 00:50:2453.29322-0.8361148°16km/h22865m-26.5m/s-52.3°C3.6%0hPa2.6V08:28:0002:00:0900:00:00
DJ2DS-152026-08-31 00:50:0453.29299-0.8372863°9km/h23390m-26.1m/s-51.0°C3.4%0hPa2.5V00:00:0001:59:4900:00:00
DJ2DS-152026-08-31 00:49:4453.29262-0.8371354°7km/h23935m-27.8m/s-49.5°C3.0%0hPa2.5V00:00:0001:59:2900:00:00
DJ2DS-152026-08-31 00:49:3253.29243-0.837267km/h24305m-29.6m/s-50.1°C0.4%-1.0hPa2.5V00:00:0000:00:0000:00:00
DJ2DS-152026-08-31 00:49:2453.29225-0.8373132°7km/h24518m-30.5m/s-49.5°C3.1%0hPa2.5V00:00:0001:59:0900:00:00
DJ2DS-152026-08-31 00:49:0453.29201-0.8377475°5km/h25315m-48.4m/s-49.6°C3.0%0hPa2.6V00:00:0001:58:4900:00:00
DJ2DS-152026-08-31 00:48:4453.29195-0.83744315°5km/h26277m-51.2m/s-50.4°C3.2%0hPa2.6V00:00:0001:58:2900:00:00
DB0UT-72026-08-31 00:48:3853.29184-0.83726307°7km/h26579m-50.8m/s-51.0°C3.4%0hPa2.6V00:00:0000:00:0000:00:00
DJ2DS-152026-08-31 00:48:2453.29173-0.83710342°11km/h27310m-53.4m/s-50.2°C3.4%0hPa2.6V00:00:0001:58:0900:00:00
DB0UT-72026-08-31 00:48:0853.29172-0.83678245°24km/h28140m-48.3m/s-48.3°C2.7%0hPa2.5V00:00:0001:57:5300:00:00
DJ2DS-152026-08-31 00:48:0453.29177-0.83649263°18km/h28323m-41.0m/s-48.6°C2.8%0hPa2.5V00:00:0001:57:4900:00:00
DJ2DS-152026-08-31 00:47:4453.29156-0.83526183°5km/h28445m5.6m/s-48.7°C0.4%-1.0hPa2.5V00:00:0000:00:0000:00:00
DJ2DS-152026-08-31 00:47:2453.29184-0.83408245°24km/h28335m5.8m/s-49.1°C3.1%0hPa2.5V00:00:0001:57:0908:30:00
DB0UT-72026-08-31 00:47:0553.29246-0.83272242°20km/h28220m5.4m/s-48.8°C2.9%0hPa2.5V00:00:0000:00:0000:00:00
DJ2DS-152026-08-31 00:47:0453.29249-0.83264238°20km/h28214m5.5m/s-48.8°C2.9%0hPa2.6V00:00:0001:56:4900:00:00
DJ2DS-152026-08-31 00:46:4453.29329-0.83207165°16km/h28093m6.5m/s-49.2°C3.0%0hPa2.6V00:00:0001:56:2900:00:00
DB0UT-72026-08-31 00:46:3553.29359-0.83175176°11km/h28040m5.3m/s-49.2°C3.1%0hPa2.6V00:00:0001:56:2000:00:00
DJ2DS-152026-08-31 00:46:3153.29377-0.83191122°16km/h28017m5.5m/s-49.2°C0.4%-1.0hPa2.6V00:00:0000:00:0000:00:00
DJ2DS-152026-08-31 00:46:2453.29393-0.83203234°9km/h27976m7.0m/s-49.1°C2.9%0hPa2.6V00:00:0001:56:0900:00:00
DB0UT-72026-08-31 00:46:0553.29396-0.83208106°18km/h27863m5.1m/s-49.1°C3.0%0hPa2.6V00:00:0000:00:0000:00:00
DJ2DS-152026-08-31 00:46:0453.29396-0.8321498°15km/h27858m5.4m/s-49.1°C3.0%0hPa2.6V00:00:0001:55:4900:00:00
DJ2DS-152026-08-31 00:45:5553.29376-0.8323713km/h27805m6.8m/s-49.4°C0.4%-1.0hPa2.6V00:00:0000:00:0000:00:00
DJ2DS-152026-08-31 00:45:4253.29320-0.8324717°27km/h27733m4.4m/s-49.6°C3.0%0hPa2.6V00:00:0001:55:2700:00:00
DB0UT-72026-08-31 00:45:3553.29280-0.8328322km/h27692m4.6m/s-49.8°C3.1%0hPa2.6V00:00:0001:55:2000:00:00
DJ2DS-152026-08-31 00:45:2253.29189-0.8327628°15km/h27619m6.5m/s-49.8°C3.1%0hPa2.6V00:00:0001:55:0700:00:00
DJ2DS-152026-08-31 00:45:1953.29178-0.83277343°18km/h27602m6.5m/s-49.9°C0.4%-1.0hPa2.5V00:00:0000:00:0000:00:00
DB0UT-72026-08-31 00:45:0553.29125-0.83255342°9km/h27523m6.0m/s-50.2°C3.1%0hPa2.5V00:00:0000:00:0000:00:00
DJ2DS-152026-08-31 00:44:4353.29096-0.83194305°7km/h27400m4.8m/s-51.0°C0.5%-1.0hPa2.5V00:00:0000:00:0000:00:00
DJ2DS-152026-08-31 00:44:4253.29095-0.83192302°7km/h27396m4.7m/s-51.0°C3.3%0hPa2.5V00:00:0001:54:2700:00:00
DB0UT-72026-08-31 00:44:3553.29093-0.83176294°9km/h27358m4.7m/s-51.0°C3.4%0hPa2.5V00:00:0001:54:2000:00:00
DJ2DS-152026-08-31 00:44:2253.29107-0.83134246°11km/h27287m5.0m/s-50.9°C3.3%0hPa2.5V00:00:0001:54:0708:30:00
DB0UT-72026-08-31 00:44:0553.29145-0.83108212°5km/h27194m6.4m/s-51.2°C3.4%0hPa2.5V00:00:0000:00:0008:30:00
DJ2DS-152026-08-31 00:44:0253.29152-0.83104187°4km/h27177m6.5m/s-51.3°C3.3%0hPa2.5V00:00:0001:53:4700:00:00
DJ2DS-152026-08-31 00:43:4253.29153-0.8312014°7km/h27063m5.2m/s-51.5°C3.4%0hPa2.5V00:00:0001:53:2700:00:00
DB0UT-72026-08-31 00:43:3553.29141-0.83118242°9km/h27021m6.1m/s-51.5°C3.4%0hPa2.5V00:00:0001:53:2000:00:00
DJ2DS-152026-08-31 00:43:2253.29124-0.83098300°9km/h26944m5.0m/s-51.6°C3.4%0hPa2.5V00:00:0001:53:0700:00:00
DB0UT-72026-08-31 00:43:0553.29105-0.83045305°11km/h26844m6.8m/s-51.6°C3.4%0hPa2.5V00:00:0000:00:0000:00:00
DJ2DS-152026-08-31 00:43:0253.29099-0.83036316°11km/h26826m6.7m/s-51.6°C3.4%0hPa2.5V00:00:0001:52:4700:00:00
DJ2DS-152026-08-31 00:42:4253.29073-0.82953286°9km/h26704m6.6m/s-51.6°C3.5%0hPa2.5V00:00:0001:52:2700:00:00
DB0UT-72026-08-31 00:42:3553.29069-0.82923260°11km/h26660m5.5m/s-51.6°C3.4%0hPa2.5V00:00:0001:52:2000:00:00
DJ2DS-152026-08-31 00:42:2253.29060-0.82881294°13km/h26580m5.2m/s-51.5°C3.4%0hPa2.6V00:00:0001:52:0700:00:00
DB0UT-72026-08-31 00:42:0553.29043-0.82825324°15km/h26478m5.8m/s-51.3°C3.4%0hPa2.5V00:00:0000:00:0000:00:00
DJ2DS-152026-08-31 00:42:0253.29037-0.82819301°13km/h26459m5.5m/s-51.2°C3.4%0hPa2.5V00:00:0001:51:4700:00:00
DJ2DS-152026-08-31 00:41:4253.29005-0.82740291°18km/h26343m5.4m/s-51.1°C3.3%0hPa2.5V00:00:0001:51:2700:00:00
DB0UT-72026-08-31 00:41:3553.28988-0.82682268°15km/h26304m6.3m/s-51.1°C3.4%0hPa2.5V00:00:0001:51:2000:00:00
DJ2DS-152026-08-31 00:41:2253.28984-0.82603285°13km/h26231m6.5m/s-50.8°C3.3%0hPa2.5V00:00:0001:51:0708:30:00
DJ2DS-152026-08-31 00:41:0753.28999-0.82515256°7km/h26139m6.7m/s-50.7°C0.5%-1.0hPa2.5V00:00:0000:00:0000:00:00
DB0UT-72026-08-31 00:41:0553.28999-0.82512275°7km/h26133m5.7m/s0°C0%0hPa2.5V00:00:0000:00:0000:00:00
DJ2DS-152026-08-31 00:40:4253.29008-0.82452276°7km/h26008m5.7m/s-50.2°C3.2%0hPa2.5V00:00:0001:50:2700:00:00
DB0UT-72026-08-31 00:40:3553.29010-0.82436171°7km/h25970m4.4m/s0°C0%0hPa2.5V00:00:0001:50:2000:00:00
BIOWL1-152026-08-31 00:40:2553.29026-0.82446169°5km/h25873m6.1m/s-50.9°C0%0hPa2.5V18:12:1501:50:0200:00:00
DJ2DS-152026-08-31 00:40:2253.29018-0.82435157°7km/h25899m4.8m/s-50.7°C3.2%0hPa2.6V00:00:0001:50:0700:00:00
BIOWL1-152026-08-31 00:40:0053.29015-0.82409273°15km/h25782m5.7m/s-51.5°C0%0hPa2.6V18:12:1501:49:4500:00:00
BIOWL1-152026-08-31 00:39:5053.29010-0.82382238°4km/h25729m5.4m/s-51.4°C0%0hPa2.6V18:12:1501:49:3500:00:00
BIOWL1-152026-08-31 00:39:4053.29020-0.8238629°11km/h25660m5.7m/s-51.2°C0%0hPa2.5V18:12:1501:49:2200:00:00
BIOWL1-152026-08-31 00:39:2753.29031-0.82409125°22km/h25608m4.5m/s-51.3°C0%0hPa2.6V18:12:1501:49:1200:00:00
BIOWL1-152026-08-31 00:39:1653.29025-0.82444116°11km/h25547m6.5m/s-51.4°C0%0hPa2.5V18:12:1501:49:0100:00:00
BIOWL1-152026-08-31 00:39:0553.29016-0.8248813°13km/h25479m5.1m/s0°C0%0hPa2.6V18:12:1501:48:4900:00:00
BIOWL1-152026-08-31 00:38:5453.28999-0.8252545°9km/h25416m4.7m/s0°C0%0hPa2.5V18:12:1501:48:3800:00:00
DJ2DS-152026-08-31 00:38:4353.28969-0.8254858°5km/h25351m4.7m/s-50.6°C0.5%-1.0hPa2.5V00:00:0000:00:0000:00:00
DJ2DS-152026-08-31 00:38:4153.28968-0.8255026°13km/h25346m5.5m/s-50.6°C3.3%0hPa2.5V00:00:0001:48:2600:00:00
DJ2DS-152026-08-31 00:38:2153.28910-0.8257232°11km/h25230m5.9m/s-50.1°C3.2%0hPa2.5V00:00:0001:48:0608:30:00
DJ2DS-152026-08-31 00:38:0653.28879-0.8258222°13km/h25140m5.4m/s-49.9°C0.5%-1.0hPa2.6V00:00:0000:00:0000:00:00
DJ2DS-152026-08-31 00:38:0153.28874-0.8259781°9km/h25110m5.9m/s-49.9°C3.2%0hPa2.6V00:00:0001:47:4600:00:00
DJ2DS-152026-08-31 00:37:4153.28841-0.8263068°11km/h24989m5.7m/s-50.0°C3.2%0hPa2.6V00:00:0001:47:2600:00:00
DJ2DS-152026-08-31 00:37:3153.28826-0.8266086°4km/h24921m5.7m/s-50.2°C0.5%-1.0hPa2.6V00:00:0000:00:0000:00:00
DJ2DS-152026-08-31 00:37:2153.28809-0.8269473°7km/h24868m5.4m/s-50.0°C3.2%0hPa2.6V00:00:0001:47:0600:00:00
DJ2DS-152026-08-31 00:37:0153.28801-0.8275156°11km/h24746m6.4m/s-50.1°C3.2%0hPa2.6V00:00:0001:46:4600:00:00
DJ2DS-152026-08-31 00:36:4153.28749-0.82788359°15km/h24626m5.3m/s-50.1°C3.2%0hPa2.6V00:00:0001:46:2600:00:00
DJ2DS-152026-08-31 00:36:2153.28673-0.8279415km/h24511m4.8m/s-50.2°C3.2%0hPa2.6V00:00:0001:46:0600:00:00
DJ2DS-152026-08-31 00:36:0153.28604-0.8279911km/h24398m5.5m/s-50.4°C3.2%0hPa2.6V00:00:0001:45:4600:00:00
DJ2DS-152026-08-31 00:35:4253.28565-0.82785274°4km/h24293m6.2m/s-50.3°C0.5%-1.0hPa2.6V00:00:0000:00:0000:00:00
DJ2DS-152026-08-31 00:35:4153.28564-0.82783266°9km/h24288m5.0m/s-50.2°C3.3%0hPa2.6V00:00:0001:45:2600:00:00
DJ2DS-152026-08-31 00:35:2153.28542-0.8281828°11km/h24187m5.8m/s-49.9°C3.2%0hPa2.6V00:00:0001:45:0608:30:00
DJ2DS-152026-08-31 00:35:0153.28519-0.8289775°15km/h24086m6.1m/s-49.8°C3.2%0hPa2.6V00:00:0001:44:4600:00:00
DJ2DS-152026-08-31 00:34:4153.28470-0.8298452°15km/h23982m3.8m/s-50.2°C3.2%0hPa2.6V00:00:0001:44:2600:00:00
DJ2DS-152026-08-31 00:34:2153.28400-0.83017322°16km/h23879m6.2m/s-51.0°C3.4%0hPa2.6V00:00:0001:44:0600:00:00
DJ2DS-152026-08-31 00:34:0153.28343-0.82953314°9km/h23776m4.7m/s-51.2°C3.3%0hPa2.6V00:00:0001:43:4600:00:00
DJ2DS-152026-08-31 00:33:4053.28318-0.8294253°9km/h23662m6.2m/s-51.9°C3.5%0hPa2.6V00:00:0001:43:2500:00:00
DJ2DS-152026-08-31 00:33:0053.28252-0.829777km/h23432m6.4m/s-52.2°C3.5%0hPa2.6V00:00:0001:42:4500:00:00
DJ2DS-152026-08-31 00:32:4253.28236-0.8302076°4km/h23321m7.0m/s-52.3°C-1.0%-1.0hPa2.6V00:00:0000:00:0000:00:00
DJ2DS-152026-08-31 00:32:4053.28236-0.83022100°15km/h23315m5.7m/s-52.3°C3.6%0hPa2.6V00:00:0001:42:2500:00:00
DJ2DS-152026-08-31 00:32:2053.28242-0.8313274°20km/h23198m6.9m/s-52.1°C3.6%0hPa2.6V00:00:0001:42:0508:30:00
DJ2DS-152026-08-31 00:32:0053.28218-0.8329577°22km/h23083m5.5m/s-51.6°C3.5%0hPa2.6V00:00:0001:41:4500:00:00
DJ2DS-152026-08-31 00:31:4053.28180-0.8345977°18km/h22972m5.0m/s-51.5°C3.4%0hPa2.6V00:00:0001:41:2500:00:00
DJ2DS-152026-08-31 00:31:2053.28114-0.8357234°18km/h22863m5.4m/s-51.6°C3.4%0hPa2.6V00:00:0001:41:0500:00:00
DJ2DS-152026-08-31 00:31:0053.28034-0.83630339°13km/h22756m5.6m/s-52.0°C3.5%0hPa2.6V00:00:0001:40:4500:00:00
DJ2DS-152026-08-31 00:30:4053.27981-0.83588335°9km/h22651m5.8m/s-51.9°C3.5%0hPa2.6V00:00:0001:40:2500:00:00
DJ2DS-152026-08-31 00:30:2053.27956-0.83539317°7km/h22551m4.5m/s-51.6°C3.5%0hPa2.6V00:00:0001:40:0500:00:00
DJ2DS-152026-08-31 00:30:0053.27967-0.83494205°7km/h22455m5.2m/s-51.2°C3.4%0hPa2.6V00:00:0001:39:4500:00:00
DJ2DS-152026-08-31 00:29:4053.27997-0.83483156°13km/h22362m4.0m/s-51.1°C3.3%0hPa2.6V00:00:0001:39:2500:00:00
DJ2DS-152026-08-31 00:29:2053.28028-0.8357093°11km/h22254m4.3m/s-51.1°C3.3%0hPa2.6V00:00:0001:39:0508:30:00


GPX KML Map

© wettersonde.net (DO2JMG) - 2026  -  -